sensor_id;sensor_type;location;lat;lon;timestamp;temperature;humidity
21944;DHT22;11136;48.778;9.126;2023-06-22T00:01:52;24.10;98.00
21944;DHT22;11136;48.778;9.126;2023-06-22T00:04:18;24.20;98.40
21944;DHT22;11136;48.778;9.126;2023-06-22T00:06:43;24.10;98.00
21944;DHT22;11136;48.778;9.126;2023-06-22T00:09:09;24.00;98.00
21944;DHT22;11136;48.778;9.126;2023-06-22T00:11:36;24.00;98.10
21944;DHT22;11136;48.778;9.126;2023-06-22T00:14:02;24.00;98.10
21944;DHT22;11136;48.778;9.126;2023-06-22T00:16:28;24.00;98.20
21944;DHT22;11136;48.778;9.126;2023-06-22T00:18:54;23.90;98.20
21944;DHT22;11136;48.778;9.126;2023-06-22T00:21:19;23.90;98.20
21944;DHT22;11136;48.778;9.126;2023-06-22T00:23:46;23.90;98.20
21944;DHT22;11136;48.778;9.126;2023-06-22T00:26:13;23.90;98.30
21944;DHT22;11136;48.778;9.126;2023-06-22T00:28:38;23.80;98.30
21944;DHT22;11136;48.778;9.126;2023-06-22T00:31:04;23.80;98.40
21944;DHT22;11136;48.778;9.126;2023-06-22T00:33:29;23.90;98.40
21944;DHT22;11136;48.778;9.126;2023-06-22T00:35:55;23.80;98.50
21944;DHT22;11136;48.778;9.126;2023-06-22T00:38:21;23.70;98.50
21944;DHT22;11136;48.778;9.126;2023-06-22T00:40:46;23.70;98.60
21944;DHT22;11136;48.778;9.126;2023-06-22T00:43:12;23.70;98.60
21944;DHT22;11136;48.778;9.126;2023-06-22T00:45:38;23.80;98.70
21944;DHT22;11136;48.778;9.126;2023-06-22T00:48:04;23.70;98.80
21944;DHT22;11136;48.778;9.126;2023-06-22T00:50:31;23.60;98.70
21944;DHT22;11136;48.778;9.126;2023-06-22T00:53:01;23.60;98.80
21944;DHT22;11136;48.778;9.126;2023-06-22T00:55:29;23.60;98.90
21944;DHT22;11136;48.778;9.126;2023-06-22T00:57:55;23.50;98.90
21944;DHT22;11136;48.778;9.126;2023-06-22T01:00:23;23.50;99.10
21944;DHT22;11136;48.778;9.126;2023-06-22T01:02:50;23.50;99.10
21944;DHT22;11136;48.778;9.126;2023-06-22T01:05:18;23.50;99.20
21944;DHT22;11136;48.778;9.126;2023-06-22T01:10:58;23.40;99.40
21944;DHT22;11136;48.778;9.126;2023-06-22T01:13:32;23.40;99.40
21944;DHT22;11136;48.778;9.126;2023-06-22T01:16:10;23.40;99.50
21944;DHT22;11136;48.778;9.126;2023-06-22T01:18:41;23.40;99.70
21944;DHT22;11136;48.778;9.126;2023-06-22T01:21:07;23.40;99.70
21944;DHT22;11136;48.778;9.126;2023-06-22T01:24:04;23.40;99.70
21944;DHT22;11136;48.778;9.126;2023-06-22T01:29:17;23.30;99.80
21944;DHT22;11136;48.778;9.126;2023-06-22T01:31:44;23.30;99.80
21944;DHT22;11136;48.778;9.126;2023-06-22T01:34:10;23.30;99.90
21944;DHT22;11136;48.778;9.126;2023-06-22T01:36:38;23.30;99.90
21944;DHT22;11136;48.778;9.126;2023-06-22T01:39:05;23.30;99.90
21944;DHT22;11136;48.778;9.126;2023-06-22T01:41:37;23.30;99.90
21944;DHT22;11136;48.778;9.126;2023-06-22T01:44:05;23.30;99.90
21944;DHT22;11136;48.778;9.126;2023-06-22T01:46:34;23.30;99.90
21944;DHT22;11136;48.778;9.126;2023-06-22T01:49:00;23.30;99.90
21944;DHT22;11136;48.778;9.126;2023-06-22T01:51:26;23.30;99.90
21944;DHT22;11136;48.778;9.126;2023-06-22T01:53:52;23.20;99.90
21944;DHT22;11136;48.778;9.126;2023-06-22T01:56:17;23.30;99.90
21944;DHT22;11136;48.778;9.126;2023-06-22T01:59:11;23.20;99.90
21944;DHT22;11136;48.778;9.126;2023-06-22T02:01:43;23.20;99.90
21944;DHT22;11136;48.778;9.126;2023-06-22T02:04:13;23.20;99.90
21944;DHT22;11136;48.778;9.126;2023-06-22T02:06:43;23.10;99.90
21944;DHT22;11136;48.778;9.126;2023-06-22T02:09:12;23.10;99.90
21944;DHT22;11136;48.778;9.126;2023-06-22T02:11:41;23.10;99.90
21944;DHT22;11136;48.778;9.126;2023-06-22T02:14:08;23.10;99.90
21944;DHT22;11136;48.778;9.126;2023-06-22T02:16:34;23.10;99.90
21944;DHT22;11136;48.778;9.126;2023-06-22T02:19:02;23.00;99.90
21944;DHT22;11136;48.778;9.126;2023-06-22T02:21:31;23.00;99.90
21944;DHT22;11136;48.778;9.126;2023-06-22T02:23:58;23.00;99.90
21944;DHT22;11136;48.778;9.126;2023-06-22T02:26:25;23.00;99.90
21944;DHT22;11136;48.778;9.126;2023-06-22T02:28:51;23.00;99.90
21944;DHT22;11136;48.778;9.126;2023-06-22T02:31:16;22.90;99.90
21944;DHT22;11136;48.778;9.126;2023-06-22T02:33:42;22.90;99.90
21944;DHT22;11136;48.778;9.126;2023-06-22T02:36:09;22.80;99.90
21944;DHT22;11136;48.778;9.126;2023-06-22T02:38:35;22.80;99.90
21944;DHT22;11136;48.778;9.126;2023-06-22T02:41:02;22.80;99.90
21944;DHT22;11136;48.778;9.126;2023-06-22T02:43:28;22.80;99.90
21944;DHT22;11136;48.778;9.126;2023-06-22T02:45:53;22.80;99.90
21944;DHT22;11136;48.778;9.126;2023-06-22T02:48:19;22.70;99.90
21944;DHT22;11136;48.778;9.126;2023-06-22T02:50:44;22.60;99.90
21944;DHT22;11136;48.778;9.126;2023-06-22T02:53:10;22.60;99.90
21944;DHT22;11136;48.778;9.126;2023-06-22T02:55:35;22.60;99.90
21944;DHT22;11136;48.778;9.126;2023-06-22T02:58:01;22.50;99.90
21944;DHT22;11136;48.778;9.126;2023-06-22T03:00:30;22.50;99.90
21944;DHT22;11136;48.778;9.126;2023-06-22T03:02:56;22.50;99.90
21944;DHT22;11136;48.778;9.126;2023-06-22T03:05:22;22.50;99.90
21944;DHT22;11136;48.778;9.126;2023-06-22T03:07:48;22.50;99.90
21944;DHT22;11136;48.778;9.126;2023-06-22T03:10:14;22.50;99.90
21944;DHT22;11136;48.778;9.126;2023-06-22T03:12:41;22.50;99.90
21944;DHT22;11136;48.778;9.126;2023-06-22T03:15:11;22.50;99.90
21944;DHT22;11136;48.778;9.126;2023-06-22T03:17:38;22.40;99.90
21944;DHT22;11136;48.778;9.126;2023-06-22T03:20:05;22.40;99.90
21944;DHT22;11136;48.778;9.126;2023-06-22T03:22:38;22.40;99.90
21944;DHT22;11136;48.778;9.126;2023-06-22T03:25:04;22.40;99.90
21944;DHT22;11136;48.778;9.126;2023-06-22T03:27:36;22.40;99.90
21944;DHT22;11136;48.778;9.126;2023-06-22T03:30:01;22.40;99.90
21944;DHT22;11136;48.778;9.126;2023-06-22T03:32:27;22.40;99.90
21944;DHT22;11136;48.778;9.126;2023-06-22T03:34:53;22.40;99.90
21944;DHT22;11136;48.778;9.126;2023-06-22T03:37:19;22.40;99.90
21944;DHT22;11136;48.778;9.126;2023-06-22T03:39:44;22.30;99.90
21944;DHT22;11136;48.778;9.126;2023-06-22T03:42:10;22.30;99.90
21944;DHT22;11136;48.778;9.126;2023-06-22T03:44:36;22.30;99.90
21944;DHT22;11136;48.778;9.126;2023-06-22T03:47:02;22.30;99.90
21944;DHT22;11136;48.778;9.126;2023-06-22T03:49:28;22.30;99.90
21944;DHT22;11136;48.778;9.126;2023-06-22T03:51:54;22.30;99.90
21944;DHT22;11136;48.778;9.126;2023-06-22T03:54:19;22.30;99.90
21944;DHT22;11136;48.778;9.126;2023-06-22T03:56:45;22.30;99.90
21944;DHT22;11136;48.778;9.126;2023-06-22T03:59:10;22.30;99.90
21944;DHT22;11136;48.778;9.126;2023-06-22T04:01:36;22.20;99.90
21944;DHT22;11136;48.778;9.126;2023-06-22T04:04:02;22.20;99.90
21944;DHT22;11136;48.778;9.126;2023-06-22T04:06:27;22.20;99.90
21944;DHT22;11136;48.778;9.126;2023-06-22T04:08:53;22.10;99.90
21944;DHT22;11136;48.778;9.126;2023-06-22T04:11:18;22.10;99.90
21944;DHT22;11136;48.778;9.126;2023-06-22T04:13:44;22.10;99.90
21944;DHT22;11136;48.778;9.126;2023-06-22T04:16:10;22.10;99.90
21944;DHT22;11136;48.778;9.126;2023-06-22T04:18:35;22.10;99.90
21944;DHT22;11136;48.778;9.126;2023-06-22T04:21:02;22.20;99.90
21944;DHT22;11136;48.778;9.126;2023-06-22T04:23:28;22.10;99.90
21944;DHT22;11136;48.778;9.126;2023-06-22T04:25:53;22.10;99.90
21944;DHT22;11136;48.778;9.126;2023-06-22T04:28:19;22.20;99.90
21944;DHT22;11136;48.778;9.126;2023-06-22T04:30:44;22.20;99.90
21944;DHT22;11136;48.778;9.126;2023-06-22T04:33:16;22.20;99.90
21944;DHT22;11136;48.778;9.126;2023-06-22T04:35:44;22.20;99.90
21944;DHT22;11136;48.778;9.126;2023-06-22T04:38:12;22.20;99.90
21944;DHT22;11136;48.778;9.126;2023-06-22T04:40:39;22.30;99.90
21944;DHT22;11136;48.778;9.126;2023-06-22T04:43:05;22.30;99.90
21944;DHT22;11136;48.778;9.126;2023-06-22T04:45:34;22.40;99.90
21944;DHT22;11136;48.778;9.126;2023-06-22T04:48:03;22.30;99.90
21944;DHT22;11136;48.778;9.126;2023-06-22T04:50:29;22.30;99.90
21944;DHT22;11136;48.778;9.126;2023-06-22T04:52:55;22.30;99.90
21944;DHT22;11136;48.778;9.126;2023-06-22T04:55:20;22.30;99.90
21944;DHT22;11136;48.778;9.126;2023-06-22T04:57:47;22.30;99.90
21944;DHT22;11136;48.778;9.126;2023-06-22T05:00:16;22.30;99.90
21944;DHT22;11136;48.778;9.126;2023-06-22T05:02:44;22.30;99.90
21944;DHT22;11136;48.778;9.126;2023-06-22T05:05:10;22.40;99.90
21944;DHT22;11136;48.778;9.126;2023-06-22T05:07:40;22.40;99.90
21944;DHT22;11136;48.778;9.126;2023-06-22T05:10:12;22.40;99.90
21944;DHT22;11136;48.778;9.126;2023-06-22T05:12:38;22.50;99.90
21944;DHT22;11136;48.778;9.126;2023-06-22T05:15:05;22.50;99.90
21944;DHT22;11136;48.778;9.126;2023-06-22T05:17:31;22.50;99.90
21944;DHT22;11136;48.778;9.126;2023-06-22T05:19:57;22.80;99.90
21944;DHT22;11136;48.778;9.126;2023-06-22T05:22:22;22.60;99.90
21944;DHT22;11136;48.778;9.126;2023-06-22T05:24:48;22.60;99.90
21944;DHT22;11136;48.778;9.126;2023-06-22T05:27:14;22.50;99.90
21944;DHT22;11136;48.778;9.126;2023-06-22T05:29:40;22.70;99.90
21944;DHT22;11136;48.778;9.126;2023-06-22T05:32:06;22.70;99.90
21944;DHT22;11136;48.778;9.126;2023-06-22T05:34:32;22.80;99.90
21944;DHT22;11136;48.778;9.126;2023-06-22T05:36:58;22.80;99.90
21944;DHT22;11136;48.778;9.126;2023-06-22T05:39:26;22.90;99.90
21944;DHT22;11136;48.778;9.126;2023-06-22T05:41:52;22.90;99.90
21944;DHT22;11136;48.778;9.126;2023-06-22T05:44:18;22.90;99.90
21944;DHT22;11136;48.778;9.126;2023-06-22T05:46:44;22.90;99.90
21944;DHT22;11136;48.778;9.126;2023-06-22T05:49:15;23.00;99.90
21944;DHT22;11136;48.778;9.126;2023-06-22T05:51:41;23.00;99.90
21944;DHT22;11136;48.778;9.126;2023-06-22T05:54:07;23.00;99.90
21944;DHT22;11136;48.778;9.126;2023-06-22T05:56:34;23.10;99.90
21944;DHT22;11136;48.778;9.126;2023-06-22T05:59:00;23.10;99.90
21944;DHT22;11136;48.778;9.126;2023-06-22T06:01:25;23.10;99.90
21944;DHT22;11136;48.778;9.126;2023-06-22T06:03:53;23.10;99.90
21944;DHT22;11136;48.778;9.126;2023-06-22T06:06:19;23.10;99.90
21944;DHT22;11136;48.778;9.126;2023-06-22T06:08:54;23.20;99.90
21944;DHT22;11136;48.778;9.126;2023-06-22T06:11:20;23.10;99.90
21944;DHT22;11136;48.778;9.126;2023-06-22T06:13:45;23.20;99.90
21944;DHT22;11136;48.778;9.126;2023-06-22T06:16:12;23.20;99.90
21944;DHT22;11136;48.778;9.126;2023-06-22T06:18:38;23.20;99.90
21944;DHT22;11136;48.778;9.126;2023-06-22T06:21:03;23.20;99.90
21944;DHT22;11136;48.778;9.126;2023-06-22T06:23:29;23.20;99.90
21944;DHT22;11136;48.778;9.126;2023-06-22T06:25:54;23.30;99.90
21944;DHT22;11136;48.778;9.126;2023-06-22T06:28:20;23.30;99.90
21944;DHT22;11136;48.778;9.126;2023-06-22T06:30:46;23.30;99.90
21944;DHT22;11136;48.778;9.126;2023-06-22T06:33:12;23.30;99.90
21944;DHT22;11136;48.778;9.126;2023-06-22T06:35:38;23.40;99.90
21944;DHT22;11136;48.778;9.126;2023-06-22T06:38:04;23.50;99.90
21944;DHT22;11136;48.778;9.126;2023-06-22T06:40:29;23.50;99.90
21944;DHT22;11136;48.778;9.126;2023-06-22T06:42:55;23.60;99.90
21944;DHT22;11136;48.778;9.126;2023-06-22T06:45:23;23.60;99.90
21944;DHT22;11136;48.778;9.126;2023-06-22T06:47:49;23.60;99.90
21944;DHT22;11136;48.778;9.126;2023-06-22T06:50:15;23.70;99.90
21944;DHT22;11136;48.778;9.126;2023-06-22T06:52:41;23.70;99.90
21944;DHT22;11136;48.778;9.126;2023-06-22T06:55:08;23.80;99.90
21944;DHT22;11136;48.778;9.126;2023-06-22T06:57:41;23.80;99.90
21944;DHT22;11136;48.778;9.126;2023-06-22T07:00:08;23.80;99.90
21944;DHT22;11136;48.778;9.126;2023-06-22T07:02:39;23.90;99.90
21944;DHT22;11136;48.778;9.126;2023-06-22T07:05:05;23.90;99.90
21944;DHT22;11136;48.778;9.126;2023-06-22T07:07:32;24.00;99.90
21944;DHT22;11136;48.778;9.126;2023-06-22T07:09:58;24.00;99.90
21944;DHT22;11136;48.778;9.126;2023-06-22T07:12:24;24.10;99.90
21944;DHT22;11136;48.778;9.126;2023-06-22T07:14:49;24.10;99.90
21944;DHT22;11136;48.778;9.126;2023-06-22T07:17:16;24.20;99.90
21944;DHT22;11136;48.778;9.126;2023-06-22T07:19:41;24.20;99.90
21944;DHT22;11136;48.778;9.126;2023-06-22T07:22:07;24.30;99.90
21944;DHT22;11136;48.778;9.126;2023-06-22T07:24:33;24.30;99.90
21944;DHT22;11136;48.778;9.126;2023-06-22T07:26:59;24.40;99.90
21944;DHT22;11136;48.778;9.126;2023-06-22T07:29:25;24.40;99.90
21944;DHT22;11136;48.778;9.126;2023-06-22T07:31:52;24.40;99.90
21944;DHT22;11136;48.778;9.126;2023-06-22T07:34:18;24.40;99.90
21944;DHT22;11136;48.778;9.126;2023-06-22T07:36:44;24.50;99.90
21944;DHT22;11136;48.778;9.126;2023-06-22T07:39:10;24.60;99.90
21944;DHT22;11136;48.778;9.126;2023-06-22T07:41:35;24.60;99.90
21944;DHT22;11136;48.778;9.126;2023-06-22T07:44:02;24.70;99.90
21944;DHT22;11136;48.778;9.126;2023-06-22T07:46:29;24.70;99.70
21944;DHT22;11136;48.778;9.126;2023-06-22T07:48:56;24.80;99.70
21944;DHT22;11136;48.778;9.126;2023-06-22T07:51:22;24.80;99.60
21944;DHT22;11136;48.778;9.126;2023-06-22T07:53:48;24.90;99.50
21944;DHT22;11136;48.778;9.126;2023-06-22T07:56:14;24.90;99.40
21944;DHT22;11136;48.778;9.126;2023-06-22T07:58:44;25.00;99.30
21944;DHT22;11136;48.778;9.126;2023-06-22T08:01:10;25.00;99.20
21944;DHT22;11136;48.778;9.126;2023-06-22T08:03:36;25.10;99.00
21944;DHT22;11136;48.778;9.126;2023-06-22T08:06:01;25.10;99.00
21944;DHT22;11136;48.778;9.126;2023-06-22T08:08:27;25.20;98.90
21944;DHT22;11136;48.778;9.126;2023-06-22T08:10:52;25.30;98.50
21944;DHT22;11136;48.778;9.126;2023-06-22T08:13:18;25.40;98.30
21944;DHT22;11136;48.778;9.126;2023-06-22T08:15:44;25.40;98.00
21944;DHT22;11136;48.778;9.126;2023-06-22T08:18:10;25.40;97.90
21944;DHT22;11136;48.778;9.126;2023-06-22T08:20:35;25.50;98.10
21944;DHT22;11136;48.778;9.126;2023-06-22T08:23:01;25.50;98.10
21944;DHT22;11136;48.778;9.126;2023-06-22T08:25:32;25.60;97.90
21944;DHT22;11136;48.778;9.126;2023-06-22T08:27:58;25.70;97.80
21944;DHT22;11136;48.778;9.126;2023-06-22T08:30:23;25.80;97.60
21944;DHT22;11136;48.778;9.126;2023-06-22T08:32:49;25.80;97.60
21944;DHT22;11136;48.778;9.126;2023-06-22T08:35:14;25.80;97.20
21944;DHT22;11136;48.778;9.126;2023-06-22T08:37:40;25.90;96.90
21944;DHT22;11136;48.778;9.126;2023-06-22T08:40:08;25.90;96.60
21944;DHT22;11136;48.778;9.126;2023-06-22T08:42:39;26.00;96.50
21944;DHT22;11136;48.778;9.126;2023-06-22T08:45:05;26.00;96.20
21944;DHT22;11136;48.778;9.126;2023-06-22T08:47:31;26.00;96.30
21944;DHT22;11136;48.778;9.126;2023-06-22T08:49:57;26.10;96.20
21944;DHT22;11136;48.778;9.126;2023-06-22T08:52:23;26.30;96.20
21944;DHT22;11136;48.778;9.126;2023-06-22T08:54:49;26.50;96.20
21944;DHT22;11136;48.778;9.126;2023-06-22T08:57:15;26.70;95.70
21944;DHT22;11136;48.778;9.126;2023-06-22T08:59:41;26.90;95.20
21944;DHT22;11136;48.778;9.126;2023-06-22T09:02:07;27.00;95.00
21944;DHT22;11136;48.778;9.126;2023-06-22T09:04:32;27.00;94.30
21944;DHT22;11136;48.778;9.126;2023-06-22T09:07:00;27.10;94.20
21944;DHT22;11136;48.778;9.126;2023-06-22T09:09:26;27.10;93.80
21944;DHT22;11136;48.778;9.126;2023-06-22T09:11:52;27.10;93.80
21944;DHT22;11136;48.778;9.126;2023-06-22T09:14:18;27.20;93.70
21944;DHT22;11136;48.778;9.126;2023-06-22T09:16:44;27.10;93.70
21944;DHT22;11136;48.778;9.126;2023-06-22T09:19:09;27.10;93.60
21944;DHT22;11136;48.778;9.126;2023-06-22T09:21:35;27.10;93.40
21944;DHT22;11136;48.778;9.126;2023-06-22T09:24:01;27.10;93.50
21944;DHT22;11136;48.778;9.126;2023-06-22T09:26:26;27.10;93.80
21944;DHT22;11136;48.778;9.126;2023-06-22T09:28:52;27.20;93.70
21944;DHT22;11136;48.778;9.126;2023-06-22T09:31:17;27.30;93.20
21944;DHT22;11136;48.778;9.126;2023-06-22T09:33:51;27.40;93.20
21944;DHT22;11136;48.778;9.126;2023-06-22T09:36:17;27.40;93.20
21944;DHT22;11136;48.778;9.126;2023-06-22T09:38:42;27.50;92.60
21944;DHT22;11136;48.778;9.126;2023-06-22T09:41:08;27.60;92.80
21944;DHT22;11136;48.778;9.126;2023-06-22T09:43:33;27.70;92.90
21944;DHT22;11136;48.778;9.126;2023-06-22T09:46:01;28.00;93.20
21944;DHT22;11136;48.778;9.126;2023-06-22T09:48:27;27.90;92.70
21944;DHT22;11136;48.778;9.126;2023-06-22T09:50:54;28.00;92.10
21944;DHT22;11136;48.778;9.126;2023-06-22T09:53:19;28.00;92.10
21944;DHT22;11136;48.778;9.126;2023-06-22T09:55:45;28.10;91.80
21944;DHT22;11136;48.778;9.126;2023-06-22T09:58:10;28.20;92.00
21944;DHT22;11136;48.778;9.126;2023-06-22T10:00:36;28.30;92.10
21944;DHT22;11136;48.778;9.126;2023-06-22T10:03:01;28.40;91.70
21944;DHT22;11136;48.778;9.126;2023-06-22T10:05:27;28.60;91.50
21944;DHT22;11136;48.778;9.126;2023-06-22T10:07:52;28.70;91.30
21944;DHT22;11136;48.778;9.126;2023-06-22T10:10:18;28.70;91.00
21944;DHT22;11136;48.778;9.126;2023-06-22T10:12:54;28.80;91.00
21944;DHT22;11136;48.778;9.126;2023-06-22T10:15:19;28.80;90.70
21944;DHT22;11136;48.778;9.126;2023-06-22T10:17:46;28.90;90.70
21944;DHT22;11136;48.778;9.126;2023-06-22T10:20:12;28.90;90.30
21944;DHT22;11136;48.778;9.126;2023-06-22T10:22:42;28.90;90.40
21944;DHT22;11136;48.778;9.126;2023-06-22T10:25:09;29.00;90.10
21944;DHT22;11136;48.778;9.126;2023-06-22T10:27:35;29.00;90.00
21944;DHT22;11136;48.778;9.126;2023-06-22T10:30:01;29.00;90.10
21944;DHT22;11136;48.778;9.126;2023-06-22T10:32:26;29.10;89.90
21944;DHT22;11136;48.778;9.126;2023-06-22T10:34:54;29.10;89.50
21944;DHT22;11136;48.778;9.126;2023-06-22T10:37:19;29.30;90.00
21944;DHT22;11136;48.778;9.126;2023-06-22T10:39:45;29.40;89.50
21944;DHT22;11136;48.778;9.126;2023-06-22T10:42:11;29.40;89.30
21944;DHT22;11136;48.778;9.126;2023-06-22T10:44:37;29.50;89.40
21944;DHT22;11136;48.778;9.126;2023-06-22T10:47:04;29.60;89.10
21944;DHT22;11136;48.778;9.126;2023-06-22T10:49:30;29.70;88.90
21944;DHT22;11136;48.778;9.126;2023-06-22T10:51:55;29.90;88.70
21944;DHT22;11136;48.778;9.126;2023-06-22T10:54:21;29.70;88.10
21944;DHT22;11136;48.778;9.126;2023-06-22T10:56:46;29.90;86.90
21944;DHT22;11136;48.778;9.126;2023-06-22T10:59:12;29.90;85.90
21944;DHT22;11136;48.778;9.126;2023-06-22T11:01:37;30.00;85.10
21944;DHT22;11136;48.778;9.126;2023-06-22T11:04:03;29.90;84.10
21944;DHT22;11136;48.778;9.126;2023-06-22T11:06:29;30.00;84.40
21944;DHT22;11136;48.778;9.126;2023-06-22T11:08:55;30.00;84.50
21944;DHT22;11136;48.778;9.126;2023-06-22T11:11:20;29.90;84.50
21944;DHT22;11136;48.778;9.126;2023-06-22T11:13:46;29.90;85.50
21944;DHT22;11136;48.778;9.126;2023-06-22T11:16:11;30.00;85.50
21944;DHT22;11136;48.778;9.126;2023-06-22T11:18:37;30.00;84.10
21944;DHT22;11136;48.778;9.126;2023-06-22T11:21:02;30.00;84.10
21944;DHT22;11136;48.778;9.126;2023-06-22T11:23:28;30.00;84.10
21944;DHT22;11136;48.778;9.126;2023-06-22T11:25:54;30.00;83.90
21944;DHT22;11136;48.778;9.126;2023-06-22T11:28:20;30.00;83.90
21944;DHT22;11136;48.778;9.126;2023-06-22T11:30:45;30.00;84.20
21944;DHT22;11136;48.778;9.126;2023-06-22T11:33:11;29.90;84.70
21944;DHT22;11136;48.778;9.126;2023-06-22T11:35:37;29.90;85.10
21944;DHT22;11136;48.778;9.126;2023-06-22T11:38:02;30.00;85.20
21944;DHT22;11136;48.778;9.126;2023-06-22T11:40:29;30.00;85.20
21944;DHT22;11136;48.778;9.126;2023-06-22T11:42:55;30.10;84.80
21944;DHT22;11136;48.778;9.126;2023-06-22T11:45:20;30.10;84.50
21944;DHT22;11136;48.778;9.126;2023-06-22T11:47:46;30.20;84.30
21944;DHT22;11136;48.778;9.126;2023-06-22T11:50:12;30.20;83.90
21944;DHT22;11136;48.778;9.126;2023-06-22T11:52:37;30.30;83.50
21944;DHT22;11136;48.778;9.126;2023-06-22T11:55:03;30.30;83.60
21944;DHT22;11136;48.778;9.126;2023-06-22T11:57:32;30.30;83.80
21944;DHT22;11136;48.778;9.126;2023-06-22T11:59:58;30.30;82.90
21944;DHT22;11136;48.778;9.126;2023-06-22T12:02:23;30.30;82.90
21944;DHT22;11136;48.778;9.126;2023-06-22T12:04:49;30.50;82.10
21944;DHT22;11136;48.778;9.126;2023-06-22T12:07:18;30.30;81.80
21944;DHT22;11136;48.778;9.126;2023-06-22T12:09:43;30.30;81.30
21944;DHT22;11136;48.778;9.126;2023-06-22T12:12:09;30.30;81.00
21944;DHT22;11136;48.778;9.126;2023-06-22T12:14:35;30.20;81.10
21944;DHT22;11136;48.778;9.126;2023-06-22T12:17:01;30.20;81.30
21944;DHT22;11136;48.778;9.126;2023-06-22T12:19:26;30.10;81.70
21944;DHT22;11136;48.778;9.126;2023-06-22T12:21:52;30.20;83.40
21944;DHT22;11136;48.778;9.126;2023-06-22T12:24:17;30.20;83.20
21944;DHT22;11136;48.778;9.126;2023-06-22T12:26:43;30.20;83.40
21944;DHT22;11136;48.778;9.126;2023-06-22T12:29:09;30.20;83.40
21944;DHT22;11136;48.778;9.126;2023-06-22T12:31:35;30.30;83.10
21944;DHT22;11136;48.778;9.126;2023-06-22T12:34:02;30.30;83.00
21944;DHT22;11136;48.778;9.126;2023-06-22T12:36:27;30.30;82.80
21944;DHT22;11136;48.778;9.126;2023-06-22T12:38:53;30.50;83.30
21944;DHT22;11136;48.778;9.126;2023-06-22T12:41:19;30.30;83.00
21944;DHT22;11136;48.778;9.126;2023-06-22T12:43:46;30.20;82.80
21944;DHT22;11136;48.778;9.126;2023-06-22T12:46:12;30.20;83.30
21944;DHT22;11136;48.778;9.126;2023-06-22T12:48:37;30.20;83.60
21944;DHT22;11136;48.778;9.126;2023-06-22T12:51:07;30.50;84.20
21944;DHT22;11136;48.778;9.126;2023-06-22T12:53:34;30.20;84.30
21944;DHT22;11136;48.778;9.126;2023-06-22T12:55:59;30.30;84.60
21944;DHT22;11136;48.778;9.126;2023-06-22T12:58:25;30.20;84.80
21944;DHT22;11136;48.778;9.126;2023-06-22T13:00:50;30.20;85.00
21944;DHT22;11136;48.778;9.126;2023-06-22T13:03:16;30.20;84.90
21944;DHT22;11136;48.778;9.126;2023-06-22T13:05:41;30.10;85.30
21944;DHT22;11136;48.778;9.126;2023-06-22T13:08:07;30.30;85.20
21944;DHT22;11136;48.778;9.126;2023-06-22T13:10:33;30.10;85.30
21944;DHT22;11136;48.778;9.126;2023-06-22T13:12:59;30.10;85.20
21944;DHT22;11136;48.778;9.126;2023-06-22T13:15:29;30.10;85.00
21944;DHT22;11136;48.778;9.126;2023-06-22T13:17:55;30.10;85.10
21944;DHT22;11136;48.778;9.126;2023-06-22T13:20:21;30.00;85.40
21944;DHT22;11136;48.778;9.126;2023-06-22T13:22:46;30.10;85.80
21944;DHT22;11136;48.778;9.126;2023-06-22T13:25:12;30.20;86.10
21944;DHT22;11136;48.778;9.126;2023-06-22T13:27:41;30.10;86.80
21944;DHT22;11136;48.778;9.126;2023-06-22T13:30:08;30.10;87.10
21944;DHT22;11136;48.778;9.126;2023-06-22T13:32:34;30.10;87.10
21944;DHT22;11136;48.778;9.126;2023-06-22T13:35:00;30.20;87.40
21944;DHT22;11136;48.778;9.126;2023-06-22T13:37:26;30.20;87.50
21944;DHT22;11136;48.778;9.126;2023-06-22T13:39:51;30.20;87.70
21944;DHT22;11136;48.778;9.126;2023-06-22T13:42:17;30.30;87.60
21944;DHT22;11136;48.778;9.126;2023-06-22T13:44:43;30.30;86.20
21944;DHT22;11136;48.778;9.126;2023-06-22T13:47:08;30.30;85.80
21944;DHT22;11136;48.778;9.126;2023-06-22T13:49:34;30.40;86.10
21944;DHT22;11136;48.778;9.126;2023-06-22T13:52:00;30.40;85.80
21944;DHT22;11136;48.778;9.126;2023-06-22T13:54:25;30.40;85.50
21944;DHT22;11136;48.778;9.126;2023-06-22T13:56:51;30.50;85.30
21944;DHT22;11136;48.778;9.126;2023-06-22T13:59:17;30.40;84.70
21944;DHT22;11136;48.778;9.126;2023-06-22T14:01:42;30.40;85.30
21944;DHT22;11136;48.778;9.126;2023-06-22T14:04:09;30.40;84.40
21944;DHT22;11136;48.778;9.126;2023-06-22T14:06:35;30.40;83.80
21944;DHT22;11136;48.778;9.126;2023-06-22T14:09:01;30.60;84.70
21944;DHT22;11136;48.778;9.126;2023-06-22T14:11:26;30.50;85.20
21944;DHT22;11136;48.778;9.126;2023-06-22T14:13:52;30.50;84.00
21944;DHT22;11136;48.778;9.126;2023-06-22T14:16:18;30.60;83.50
21944;DHT22;11136;48.778;9.126;2023-06-22T14:18:45;30.70;83.20
21944;DHT22;11136;48.778;9.126;2023-06-22T14:21:10;30.80;83.40
21944;DHT22;11136;48.778;9.126;2023-06-22T14:23:36;31.10;82.30
21944;DHT22;11136;48.778;9.126;2023-06-22T14:26:03;31.30;81.70
21944;DHT22;11136;48.778;9.126;2023-06-22T14:28:28;31.50;81.20
21944;DHT22;11136;48.778;9.126;2023-06-22T14:30:54;31.60;80.00
21944;DHT22;11136;48.778;9.126;2023-06-22T14:33:20;31.60;78.80
21944;DHT22;11136;48.778;9.126;2023-06-22T14:35:45;31.70;77.60
21944;DHT22;11136;48.778;9.126;2023-06-22T14:38:11;31.70;76.30
21944;DHT22;11136;48.778;9.126;2023-06-22T14:40:36;31.70;75.90
21944;DHT22;11136;48.778;9.126;2023-06-22T14:43:02;31.70;75.40
21944;DHT22;11136;48.778;9.126;2023-06-22T14:45:27;31.80;75.50
21944;DHT22;11136;48.778;9.126;2023-06-22T14:47:53;32.00;74.90
21944;DHT22;11136;48.778;9.126;2023-06-22T14:50:18;32.20;73.50
21944;DHT22;11136;48.778;9.126;2023-06-22T14:52:44;32.40;72.00
21944;DHT22;11136;48.778;9.126;2023-06-22T14:55:09;32.60;71.40
21944;DHT22;11136;48.778;9.126;2023-06-22T14:57:35;32.90;68.00
21944;DHT22;11136;48.778;9.126;2023-06-22T15:00:01;33.00;63.90
21944;DHT22;11136;48.778;9.126;2023-06-22T15:02:27;33.20;61.50
21944;DHT22;11136;48.778;9.126;2023-06-22T15:04:53;33.20;59.50
21944;DHT22;11136;48.778;9.126;2023-06-22T15:07:19;33.30;57.60
21944;DHT22;11136;48.778;9.126;2023-06-22T15:09:45;33.30;57.70
21944;DHT22;11136;48.778;9.126;2023-06-22T15:12:11;33.30;56.90
21944;DHT22;11136;48.778;9.126;2023-06-22T15:14:40;33.20;56.40
21944;DHT22;11136;48.778;9.126;2023-06-22T15:17:07;33.10;55.90
21944;DHT22;11136;48.778;9.126;2023-06-22T15:19:36;33.00;56.30
21944;DHT22;11136;48.778;9.126;2023-06-22T15:22:05;33.10;56.80
21944;DHT22;11136;48.778;9.126;2023-06-22T15:24:32;33.20;55.80
21944;DHT22;11136;48.778;9.126;2023-06-22T15:26:57;33.30;55.50
21944;DHT22;11136;48.778;9.126;2023-06-22T15:29:23;33.30;55.30
21944;DHT22;11136;48.778;9.126;2023-06-22T15:31:48;33.40;55.20